EGKK/London Gatwick General Airport Information

EGKK - London Gatwick Located in London, UNITED KINGDOM ICAO - EGKK, IATA - LGW. Lat/Long . N51-08.9/W000-11.4 ATIS Frequency. INTERNATIONAL. Airport General Remarks TAF EGKK 200501Z 2006/2112 21004KT 9999 BKN025 TEMPO 2006/2012 8000 BKN008 PROB30 TEMPO 2006/2008 3000 BR BKN003 TEMPO 2019/2109 4000 BR BKN003 PROB30 TEMPO 2101/2107 1000

Airport Detail: EGKK | LiveATCnet

LiveATC.net provides live air traffic control (ATC) broadcasts from air traffic control towers and radar facilities around the world

LGW pilot info @ OurAirports

a0795/19 notamn q) egtt/qmxlt/iv/m /a /000/999/5109n00011w005 a) egkk b) 1903160400 c) 1903312359 e) following twy are not avbl for code d aircraft (wingspan between 36m and 52m): twy alpha, east of twy mike. twy juliet, east of twy mike. twy victor, east of twy whiskey. twy whiskey. twy zulu between twy november and twy whiskey.

VATSIM UK | Home

London Gatwick Airport (IATA: LGW, ICAO: EGKK), situated to the 29.5 miles south of Central London, is the second busiest airport in the United Kingdom in terms of passenger numbers and operates the busiest runway in the world.

EGKK : London Gatwick

[Controlled] EGKK (Lowfield Heath,England,GB) Asphalt 3,154m. This page is community maintained. The information is intended for PC simulator navigation or reference.

Sorry, but nothing matched your search terms. Please try again with some different keywords.